createdAt,value
2022-10-12T00:01:20.415Z,1.10
2022-10-12T00:03:48.644Z,1.55
2022-10-12T00:06:19.162Z,1.35
2022-10-12T00:08:48.991Z,1.33
2022-10-12T00:11:19.634Z,1.50
2022-10-12T00:13:48.129Z,1.58
2022-10-12T00:16:20.528Z,1.35
2022-10-12T00:18:52.647Z,1.13
2022-10-12T00:21:21.183Z,1.10
2022-10-12T00:23:49.938Z,1.48
2022-10-12T00:26:20.070Z,1.50
2022-10-12T00:28:49.601Z,2.60
2022-10-12T00:33:49.486Z,1.52
2022-10-12T00:38:47.605Z,1.23
2022-10-12T00:41:17.776Z,0.95
2022-10-12T00:43:47.266Z,1.33
2022-10-12T00:48:53.028Z,1.88
2022-10-12T00:51:23.666Z,1.00
2022-10-12T00:53:58.061Z,1.20
2022-10-12T00:56:29.579Z,1.08
2022-10-12T00:59:03.792Z,0.80
2022-10-12T01:01:34.974Z,1.05
2022-10-12T01:04:06.087Z,0.98
2022-10-12T01:06:35.338Z,0.98
2022-10-12T01:11:32.540Z,0.52
2022-10-12T01:14:01.126Z,0.88
2022-10-12T01:16:39.391Z,0.82
2022-10-12T01:19:28.076Z,1.17
2022-10-12T01:22:03.109Z,0.80
2022-10-12T01:24:45.237Z,0.85
2022-10-12T01:27:30.778Z,0.80
2022-10-12T01:30:15.985Z,0.98
2022-10-12T01:33:04.353Z,1.02
2022-10-12T01:35:39.648Z,1.15
2022-10-12T01:38:19.897Z,0.80
2022-10-12T01:40:55.590Z,0.90
2022-10-12T01:43:24.719Z,0.88
2022-10-12T01:45:54.727Z,0.60
2022-10-12T01:48:22.878Z,0.90
2022-10-12T01:50:53.631Z,0.90
2022-10-12T01:53:34.522Z,0.90
2022-10-12T01:56:10.303Z,0.95
2022-10-12T01:58:55.919Z,0.75
2022-10-12T02:01:33.791Z,0.60
2022-10-12T02:04:08.113Z,0.50
2022-10-12T02:06:41.920Z,0.85
2022-10-12T02:09:16.226Z,0.57
2022-10-12T02:11:46.781Z,0.50
2022-10-12T02:14:17.737Z,0.70
2022-10-12T02:16:51.154Z,0.80
2022-10-12T02:19:24.620Z,0.40
2022-10-12T02:21:55.493Z,0.80
2022-10-12T02:24:24.930Z,1.30
2022-10-12T02:26:55.266Z,0.80
2022-10-12T02:29:28.541Z,0.63
2022-10-12T02:32:11.781Z,0.80
2022-10-12T02:34:47.317Z,1.00
2022-10-12T02:37:26.765Z,0.63
2022-10-12T02:40:00.512Z,1.08
2022-10-12T02:42:41.874Z,0.77
2022-10-12T02:45:16.558Z,0.80
2022-10-12T02:47:48.795Z,0.68
2022-10-12T02:50:20.755Z,0.80
2022-10-12T02:52:50.831Z,0.90
2022-10-12T02:55:19.178Z,0.50
2022-10-12T02:57:47.534Z,1.27
2022-10-12T03:00:16.837Z,1.02
2022-10-12T03:02:46.622Z,0.80
2022-10-12T03:05:14.860Z,0.73
2022-10-12T03:07:43.091Z,0.73
2022-10-12T03:10:11.503Z,0.93
2022-10-12T03:12:39.603Z,0.90
2022-10-12T03:15:08.311Z,1.00
2022-10-12T03:17:36.903Z,1.20
2022-10-12T03:20:07.985Z,1.08
2022-10-12T03:22:36.136Z,1.40
2022-10-12T03:25:04.757Z,1.20
2022-10-12T03:27:32.916Z,1.45
2022-10-12T03:30:01.065Z,1.27
2022-10-12T03:32:29.419Z,0.90
2022-10-12T03:34:57.528Z,1.17
2022-10-12T03:37:27.216Z,1.50
2022-10-12T03:39:55.679Z,1.55
2022-10-12T03:42:23.803Z,1.63
2022-10-12T03:44:52.301Z,2.15
2022-10-12T03:47:20.473Z,2.63
2022-10-12T03:49:48.831Z,2.20
2022-10-12T03:52:17.025Z,1.90
2022-10-12T03:54:47.143Z,1.83
2022-10-12T03:57:15.434Z,1.23
2022-10-12T03:59:43.869Z,0.80
2022-10-12T04:02:16.649Z,1.10
2022-10-12T04:04:45.892Z,2.92
2022-10-12T04:07:14.060Z,1.23
2022-10-12T04:09:42.227Z,1.23
2022-10-12T04:12:12.055Z,1.85
2022-10-12T04:14:40.236Z,0.75
2022-10-12T04:17:08.620Z,0.93
2022-10-12T04:19:37.023Z,1.27
2022-10-12T04:22:05.291Z,1.35
2022-10-12T04:24:33.633Z,1.13
2022-10-12T04:27:02.368Z,1.50
2022-10-12T04:29:32.288Z,0.95
2022-10-12T04:32:00.485Z,1.30
2022-10-12T04:34:28.966Z,1.30
2022-10-12T04:36:57.201Z,1.60
2022-10-12T04:39:25.626Z,1.17
2022-10-12T04:41:53.851Z,1.50
2022-10-12T04:44:22.907Z,1.55
2022-10-12T04:46:52.411Z,1.10
2022-10-12T04:49:21.335Z,1.30
2022-10-12T04:51:49.562Z,1.63
2022-10-12T04:54:18.106Z,1.60
2022-10-12T04:56:48.069Z,1.35
2022-10-12T04:59:17.138Z,1.48
2022-10-12T05:01:45.538Z,1.67
2022-10-12T05:04:15.191Z,1.30
2022-10-12T05:06:43.520Z,1.60
2022-10-12T05:09:14.510Z,1.63
2022-10-12T05:11:54.589Z,1.20
2022-10-12T05:14:25.382Z,1.77
2022-10-12T05:16:53.742Z,1.40
2022-10-12T05:19:25.755Z,1.77
2022-10-12T05:21:54.846Z,1.00
2022-10-12T05:24:23.177Z,1.05
2022-10-12T05:26:51.521Z,1.63
2022-10-12T05:29:19.730Z,1.35
2022-10-12T05:31:48.155Z,1.08
2022-10-12T05:34:16.321Z,1.58
2022-10-12T05:36:46.176Z,1.48
2022-10-12T05:39:14.360Z,1.23
2022-10-12T05:41:42.675Z,1.20
2022-10-12T05:44:10.869Z,1.17
2022-10-12T05:46:39.313Z,1.42
2022-10-12T05:49:08.209Z,1.20
2022-10-12T05:51:38.825Z,1.27
2022-10-12T05:54:08.562Z,1.50
2022-10-12T05:56:36.930Z,1.92
2022-10-12T05:59:05.302Z,1.38
2022-10-12T06:01:34.200Z,1.65
2022-10-12T06:04:02.689Z,1.70
2022-10-12T06:06:34.238Z,1.65
2022-10-12T06:09:02.496Z,1.67
2022-10-12T06:11:35.583Z,1.73
2022-10-12T06:14:05.455Z,1.90
2022-10-12T06:16:34.054Z,1.35
2022-10-12T06:19:02.352Z,1.73
2022-10-12T06:21:34.702Z,1.80
2022-10-12T06:24:03.472Z,2.03
2022-10-12T06:26:33.704Z,1.65
2022-10-12T06:29:02.328Z,1.70
2022-10-12T06:31:32.456Z,1.50
2022-10-12T06:34:01.265Z,1.70
2022-10-12T06:36:29.912Z,1.55
2022-10-12T06:38:58.128Z,1.58
2022-10-12T06:41:26.614Z,1.45
2022-10-12T06:43:56.327Z,2.30
2022-10-12T06:46:24.927Z,1.67
2022-10-12T06:48:53.191Z,2.63
2022-10-12T06:51:21.883Z,3.00
2022-10-12T06:53:50.081Z,1.90
2022-10-12T06:56:18.670Z,2.33
2022-10-12T06:58:46.873Z,2.10
2022-10-12T07:01:16.938Z,1.42
2022-10-12T07:03:45.625Z,1.33
2022-10-12T07:06:16.001Z,1.45
2022-10-12T07:08:44.326Z,1.70
2022-10-12T07:11:15.038Z,1.60
2022-10-12T07:13:43.580Z,1.35
2022-10-12T07:16:12.216Z,1.38
2022-10-12T07:18:42.156Z,1.30
2022-10-12T07:21:10.559Z,2.15
2022-10-12T07:23:42.497Z,1.77
2022-10-12T07:26:12.372Z,2.20
2022-10-12T07:28:40.999Z,2.17
2022-10-12T07:31:10.901Z,1.67
2022-10-12T07:33:39.857Z,1.40
2022-10-12T07:38:45.932Z,1.75
2022-10-12T07:41:14.826Z,1.67
2022-10-12T07:43:44.036Z,1.42
2022-10-12T07:46:13.192Z,1.50
2022-10-12T07:48:45.914Z,1.40
2022-10-12T07:51:17.505Z,1.48
2022-10-12T07:53:48.205Z,1.17
2022-10-12T07:56:17.040Z,1.42
2022-10-12T07:58:50.170Z,1.30
2022-10-12T08:01:20.117Z,1.10
2022-10-12T08:03:50.456Z,1.38
2022-10-12T08:06:22.673Z,1.10
2022-10-12T08:08:51.245Z,1.92
2022-10-12T08:11:20.390Z,1.45
2022-10-12T08:13:49.640Z,2.20
2022-10-12T08:16:20.561Z,1.40
2022-10-12T08:18:49.554Z,1.50
2022-10-12T08:21:19.043Z,1.10
2022-10-12T08:23:48.854Z,1.77
2022-10-12T08:26:17.827Z,1.50
2022-10-12T08:28:47.157Z,1.50
2022-10-12T08:31:17.790Z,1.10
2022-10-12T08:33:46.189Z,1.15
2022-10-12T08:36:15.401Z,1.23
2022-10-12T08:38:45.633Z,1.30
2022-10-12T08:41:29.840Z,1.50
2022-10-12T08:44:14.789Z,1.58
2022-10-12T08:46:43.829Z,1.83
2022-10-12T08:49:16.558Z,1.05
2022-10-12T08:51:50.649Z,1.08
2022-10-12T08:54:21.694Z,1.10
2022-10-12T08:56:55.735Z,1.20
2022-10-12T08:59:26.197Z,1.20
2022-10-12T09:02:04.460Z,1.20
2022-10-12T09:04:49.732Z,1.35
2022-10-12T09:07:25.779Z,1.60
2022-10-12T09:10:08.263Z,2.65
2022-10-12T09:12:47.363Z,1.15
2022-10-12T09:15:19.770Z,0.90
2022-10-12T09:17:52.546Z,1.17
2022-10-12T09:20:23.959Z,0.93
2022-10-12T09:22:56.988Z,0.90
2022-10-12T09:25:27.363Z,1.13
2022-10-12T09:28:02.996Z,1.00
2022-10-12T09:30:31.670Z,1.50
2022-10-12T09:33:18.942Z,1.10
2022-10-12T09:35:47.887Z,0.73
2022-10-12T09:38:16.635Z,0.80
2022-10-12T09:40:47.542Z,1.23
2022-10-12T09:43:18.375Z,0.90
2022-10-12T09:45:48.246Z,1.20
2022-10-12T09:48:20.081Z,0.70
2022-10-12T09:50:55.180Z,0.70
2022-10-12T09:53:32.748Z,0.93
2022-10-12T09:56:06.567Z,1.05
2022-10-12T09:58:42.839Z,0.65
2022-10-12T10:01:19.451Z,0.68
2022-10-12T10:03:52.081Z,0.90
2022-10-12T10:06:27.071Z,0.70
2022-10-12T10:08:56.729Z,0.80
2022-10-12T10:13:57.026Z,1.13
2022-10-12T10:16:29.443Z,0.80
2022-10-12T10:18:59.778Z,0.80
2022-10-12T10:21:33.222Z,1.15
2022-10-12T10:24:03.117Z,0.82
2022-10-12T10:26:53.225Z,0.80
2022-10-12T10:32:16.518Z,0.90
2022-10-12T10:34:49.937Z,0.90
2022-10-12T10:37:24.277Z,0.60
2022-10-12T10:39:55.838Z,0.80
2022-10-12T10:42:28.575Z,0.60
2022-10-12T10:45:05.479Z,0.65
2022-10-12T10:47:36.110Z,0.70
2022-10-12T10:50:08.045Z,1.27
2022-10-12T10:52:38.397Z,1.40
2022-10-12T10:55:17.172Z,0.77
2022-10-12T10:58:43.288Z,1.02
2022-10-12T11:01:37.944Z,0.77
2022-10-12T11:04:10.803Z,0.98
2022-10-12T11:06:42.941Z,0.57
2022-10-12T11:09:17.386Z,0.70
2022-10-12T11:11:49.246Z,1.00
2022-10-12T11:14:20.843Z,0.80
2022-10-12T11:16:55.567Z,0.90
2022-10-12T11:19:31.779Z,0.68
2022-10-12T11:22:04.618Z,0.60
2022-10-12T11:24:39.791Z,0.70
2022-10-12T11:27:14.873Z,0.63
2022-10-12T11:29:46.658Z,0.60
2022-10-12T11:32:30.576Z,1.00
2022-10-12T11:35:06.221Z,0.70
2022-10-12T11:37:39.322Z,0.40
2022-10-12T11:40:13.916Z,0.68
2022-10-12T11:42:43.931Z,0.75
2022-10-12T11:45:22.044Z,1.27
2022-10-12T11:47:55.443Z,1.15
2022-10-12T11:50:32.103Z,0.68
2022-10-12T11:53:04.206Z,0.60
2022-10-12T11:55:52.550Z,0.75
2022-10-12T11:58:42.247Z,0.60
2022-10-12T12:01:30.900Z,0.55
2022-10-12T12:04:40.437Z,0.63
2022-10-12T12:07:42.019Z,0.70
2022-10-12T12:10:47.239Z,0.60
2022-10-12T12:13:23.211Z,0.43
2022-10-12T12:16:34.043Z,0.70
2022-10-12T12:19:19.392Z,0.60
2022-10-12T12:22:13.977Z,0.52
2022-10-12T12:24:54.488Z,0.40
2022-10-12T12:27:28.982Z,0.57
2022-10-12T12:29:58.935Z,0.50
2022-10-12T12:32:40.910Z,0.50
2022-10-12T12:35:23.878Z,0.85
2022-10-12T12:38:03.649Z,0.70
2022-10-12T12:40:33.725Z,0.60
2022-10-12T12:43:37.396Z,0.50
2022-10-12T12:46:08.489Z,0.57
2022-10-12T12:48:59.569Z,0.70
2022-10-12T12:51:38.364Z,0.60
2022-10-12T12:54:13.649Z,0.60
2022-10-12T12:56:51.739Z,0.60
2022-10-12T12:59:41.016Z,0.50
2022-10-12T13:02:36.051Z,0.70
2022-10-12T13:05:37.050Z,1.02
2022-10-12T13:08:19.189Z,1.10
2022-10-12T13:11:05.292Z,1.85
2022-10-12T13:13:49.799Z,0.93
2022-10-12T13:17:30.552Z,0.90
2022-10-12T13:19:29.377Z,1.30
2022-10-12T13:22:07.319Z,0.73
2022-10-12T13:24:49.733Z,0.90
2022-10-12T13:27:22.362Z,1.30
2022-10-12T13:29:58.251Z,0.65
2022-10-12T13:32:39.207Z,1.00
2022-10-12T13:35:14.216Z,0.90
2022-10-12T13:37:42.495Z,0.77
2022-10-12T13:40:32.651Z,0.57
2022-10-12T13:43:26.747Z,0.60
2022-10-12T13:45:55.407Z,1.10
2022-10-12T13:48:46.591Z,0.77
2022-10-12T13:51:35.241Z,0.98
2022-10-12T13:54:15.921Z,0.40
2022-10-12T13:56:47.931Z,0.50
2022-10-12T13:59:20.152Z,0.52
2022-10-12T14:01:54.409Z,0.50
2022-10-12T14:04:23.239Z,0.57
2022-10-12T14:07:01.343Z,0.50
2022-10-12T14:09:43.257Z,0.77
2022-10-12T14:12:34.705Z,0.80
2022-10-12T14:17:35.097Z,1.10
2022-10-12T14:20:39.761Z,0.70
2022-10-12T14:23:14.355Z,0.80
2022-10-12T14:25:53.454Z,0.60
2022-10-12T14:28:30.305Z,0.95
2022-10-12T14:30:58.769Z,0.50
2022-10-12T14:33:29.039Z,0.70
2022-10-12T14:36:15.148Z,0.90
2022-10-12T14:38:46.819Z,0.90
2022-10-12T14:41:36.740Z,0.85
2022-10-12T14:44:13.531Z,0.88
2022-10-12T14:46:44.026Z,0.85
2022-10-12T14:49:21.294Z,0.80
2022-10-12T14:51:50.748Z,1.00
2022-10-12T14:54:19.288Z,0.85
2022-10-12T14:56:47.582Z,1.08
2022-10-12T14:59:17.265Z,0.90
2022-10-12T15:01:49.004Z,2.03
2022-10-12T15:04:19.684Z,1.30
2022-10-12T15:06:50.882Z,1.20
2022-10-12T15:09:19.598Z,0.90
2022-10-12T15:11:48.086Z,1.40
2022-10-12T15:14:17.610Z,1.15
2022-10-12T15:16:46.114Z,1.50
2022-10-12T15:19:14.341Z,1.45
2022-10-12T15:21:43.239Z,1.85
2022-10-12T15:24:15.510Z,1.33
2022-10-12T15:26:46.467Z,1.10
2022-10-12T15:29:17.392Z,1.65
2022-10-12T15:31:50.977Z,1.30
2022-10-12T15:34:19.458Z,1.30
2022-10-12T15:36:48.108Z,1.80
2022-10-12T15:39:16.453Z,2.03
2022-10-12T15:41:45.034Z,1.60
2022-10-12T15:44:14.855Z,1.67
2022-10-12T15:46:45.845Z,2.10
2022-10-12T15:49:17.427Z,2.28
2022-10-12T15:51:50.259Z,2.30
2022-10-12T15:54:18.713Z,2.25
2022-10-12T15:56:47.430Z,1.80
2022-10-12T15:59:15.712Z,1.90
2022-10-12T16:01:45.706Z,1.90
2022-10-12T16:04:16.026Z,2.33
2022-10-12T16:06:44.598Z,2.00
2022-10-12T16:09:12.848Z,2.53
2022-10-12T16:11:41.547Z,1.92
2022-10-12T16:14:11.459Z,2.47
2022-10-12T16:16:39.849Z,2.53
2022-10-12T16:19:09.549Z,2.08
2022-10-12T16:21:37.850Z,2.70
2022-10-12T16:24:06.871Z,1.92
2022-10-12T16:26:50.647Z,2.15
2022-10-12T16:29:19.160Z,2.38
2022-10-12T16:31:47.405Z,2.33
2022-10-12T16:34:17.390Z,2.40
2022-10-12T16:36:45.534Z,2.38
2022-10-12T16:39:13.914Z,2.47
2022-10-12T16:41:41.990Z,2.58
2022-10-12T16:44:10.391Z,2.53
2022-10-12T16:46:39.037Z,2.13
2022-10-12T16:49:08.487Z,2.35
2022-10-12T16:51:39.054Z,2.15
2022-10-12T16:54:07.477Z,2.03
2022-10-12T16:56:39.288Z,2.15
2022-10-12T16:59:08.579Z,2.88
2022-10-12T17:01:36.805Z,2.47
2022-10-12T17:04:05.398Z,2.38
2022-10-12T17:06:33.583Z,2.85
2022-10-12T17:09:03.379Z,3.33
2022-10-12T17:11:31.659Z,2.92
2022-10-12T17:14:00.137Z,2.93
2022-10-12T17:16:45.507Z,2.80
2022-10-12T17:19:15.256Z,2.63
2022-10-12T17:24:15.245Z,2.22
2022-10-12T17:26:43.735Z,2.42
2022-10-12T17:29:14.399Z,2.70
2022-10-12T17:31:43.141Z,2.97
2022-10-12T17:34:19.627Z,3.70
2022-10-12T17:36:48.652Z,3.90
2022-10-12T17:39:21.955Z,4.03
2022-10-12T17:42:01.016Z,4.20
2022-10-12T17:44:30.392Z,4.85
2022-10-12T17:46:59.007Z,4.82
2022-10-12T17:49:28.335Z,5.47
2022-10-12T17:51:56.614Z,5.03
2022-10-12T17:54:26.903Z,5.73
2022-10-12T17:56:56.008Z,4.82
2022-10-12T17:59:24.796Z,3.97
2022-10-12T18:01:54.053Z,3.77
2022-10-12T18:04:22.725Z,3.20
2022-10-12T18:06:51.866Z,3.67
2022-10-12T18:09:20.056Z,3.08
2022-10-12T18:11:49.854Z,3.72
2022-10-12T18:14:22.323Z,4.95
2022-10-12T18:16:54.645Z,3.67
2022-10-12T18:19:25.442Z,3.20
2022-10-12T18:21:59.829Z,3.60
2022-10-12T18:24:31.144Z,4.72
2022-10-12T18:27:00.888Z,5.32
2022-10-12T18:29:29.190Z,5.93
2022-10-12T18:31:57.941Z,6.27
2022-10-12T18:34:27.388Z,7.27
2022-10-12T18:36:56.087Z,7.90
2022-10-12T18:39:24.200Z,8.70
2022-10-12T18:41:52.898Z,10.05
2022-10-12T18:44:22.972Z,9.43
2022-10-12T18:46:51.895Z,11.15
2022-10-12T18:49:20.063Z,11.20
2022-10-12T18:51:51.263Z,12.55
2022-10-12T18:54:19.430Z,11.65
2022-10-12T18:56:48.056Z,10.85
2022-10-12T18:59:18.086Z,11.45
2022-10-12T19:01:48.519Z,12.30
2022-10-12T19:04:16.922Z,12.32
2022-10-12T19:06:46.786Z,13.13
2022-10-12T19:09:15.505Z,13.48
2022-10-12T19:11:43.864Z,14.03
2022-10-12T19:14:15.454Z,13.45
2022-10-12T19:16:44.466Z,12.55
2022-10-12T19:19:20.783Z,12.18
2022-10-12T19:21:50.495Z,13.35
2022-10-12T19:24:19.808Z,13.52
2022-10-12T19:26:49.823Z,12.68
2022-10-12T19:29:18.040Z,13.45
2022-10-12T19:31:50.326Z,12.82
2022-10-12T19:34:21.913Z,13.95
2022-10-12T19:36:50.751Z,16.00
2022-10-12T19:39:21.125Z,18.10
2022-10-12T19:41:49.762Z,16.30
2022-10-12T19:44:19.308Z,15.93
2022-10-12T19:46:49.336Z,15.27
2022-10-12T19:49:20.453Z,14.90
2022-10-12T19:51:49.437Z,16.05
2022-10-12T19:54:18.067Z,13.70
2022-10-12T19:56:53.099Z,11.73
2022-10-12T19:59:21.559Z,13.40
2022-10-12T20:01:52.026Z,13.67
2022-10-12T20:04:21.560Z,12.27
2022-10-12T20:09:18.402Z,12.38
2022-10-12T20:11:46.742Z,12.65
2022-10-12T20:14:15.398Z,13.50
2022-10-12T20:16:43.702Z,13.15
2022-10-12T20:19:11.952Z,13.85
2022-10-12T20:21:41.797Z,13.05
2022-10-12T20:24:12.056Z,13.35
2022-10-12T20:26:40.588Z,13.40
2022-10-12T20:29:08.914Z,14.63
2022-10-12T20:31:37.518Z,14.77
2022-10-12T20:34:05.937Z,13.98
2022-10-12T20:36:34.146Z,14.07
2022-10-12T20:39:04.098Z,13.57
2022-10-12T20:41:33.843Z,12.30
2022-10-12T20:44:02.515Z,13.00
2022-10-12T20:46:31.491Z,12.77
2022-10-12T20:49:02.306Z,13.10
2022-10-12T20:51:33.536Z,13.07
2022-10-12T20:54:03.650Z,12.55
2022-10-12T20:56:34.118Z,12.48
2022-10-12T20:59:02.751Z,10.98
2022-10-12T21:01:31.236Z,12.85
2022-10-12T21:04:00.249Z,11.43
2022-10-12T21:06:28.844Z,11.63
2022-10-12T21:08:58.831Z,12.63
2022-10-12T21:11:30.016Z,12.30
2022-10-12T21:13:58.440Z,9.75
2022-10-12T21:16:28.935Z,10.32
2022-10-12T21:18:57.477Z,10.25
2022-10-12T21:21:26.030Z,9.80
2022-10-12T21:23:56.504Z,10.10
2022-10-12T21:26:27.033Z,8.88
2022-10-12T21:31:28.293Z,8.60
2022-10-12T21:34:01.449Z,8.50
2022-10-12T21:36:31.212Z,9.63
2022-10-12T21:38:59.812Z,8.32
2022-10-12T21:41:30.423Z,9.25
2022-10-12T21:44:00.024Z,9.13
2022-10-12T21:46:30.170Z,11.20
2022-10-12T21:48:58.849Z,8.27
2022-10-12T21:51:29.203Z,7.57
2022-10-12T21:53:58.059Z,7.13
2022-10-12T21:56:27.609Z,6.95
2022-10-12T21:58:58.721Z,7.22
2022-10-12T22:01:30.398Z,7.30
2022-10-12T22:04:00.488Z,6.47
2022-10-12T22:06:30.508Z,7.05
2022-10-12T22:09:00.517Z,6.00
2022-10-12T22:11:30.561Z,7.30
2022-10-12T22:14:01.084Z,7.15
2022-10-12T22:16:30.881Z,7.55
2022-10-12T22:18:59.806Z,6.50
2022-10-12T22:21:28.618Z,7.68
2022-10-12T22:23:57.157Z,6.35
2022-10-12T22:26:26.642Z,7.43
2022-10-12T22:31:25.706Z,8.48
2022-10-12T22:33:56.633Z,9.07
2022-10-12T22:36:24.862Z,9.95
2022-10-12T22:38:53.488Z,9.45
2022-10-12T22:41:23.863Z,10.07
2022-10-12T22:43:54.058Z,7.13
2022-10-12T22:46:24.896Z,8.52
2022-10-12T22:48:55.360Z,9.15
2022-10-12T22:51:30.072Z,7.57
2022-10-12T22:53:59.008Z,6.55
2022-10-12T22:56:27.373Z,6.20
2022-10-12T22:58:56.895Z,6.38
2022-10-12T23:03:56.452Z,7.13
2022-10-12T23:06:25.050Z,7.43
2022-10-12T23:08:53.422Z,6.80
2022-10-12T23:11:24.003Z,6.03
2022-10-12T23:13:52.768Z,7.75
2022-10-12T23:16:22.677Z,6.80
2022-10-12T23:18:59.448Z,7.00
2022-10-12T23:21:29.133Z,7.05
2022-10-12T23:23:58.913Z,6.63
2022-10-12T23:26:29.157Z,6.80
2022-10-12T23:28:57.780Z,6.82
2022-10-12T23:31:29.467Z,6.18
2022-10-12T23:33:59.866Z,6.55
2022-10-12T23:36:29.691Z,7.03
2022-10-12T23:39:00.710Z,7.28
2022-10-12T23:41:29.195Z,7.28
2022-10-12T23:43:59.127Z,7.32
2022-10-12T23:46:27.479Z,6.97
2022-10-12T23:48:55.915Z,7.07
2022-10-12T23:51:25.400Z,6.57
2022-10-12T23:53:54.075Z,6.93
2022-10-12T23:56:22.481Z,6.80
2022-10-12T23:58:50.719Z,6.28
